createdAt,value
2018-12-24T00:00:47.812Z,10.23
2018-12-24T00:03:15.315Z,11.47
2018-12-24T00:05:42.934Z,11.93
2018-12-24T00:08:10.440Z,10.50
2018-12-24T00:10:38.141Z,12.10
2018-12-24T00:13:05.926Z,12.23
2018-12-24T00:15:33.564Z,12.00
2018-12-24T00:18:01.261Z,11.27
2018-12-24T00:20:28.892Z,10.83
2018-12-24T00:22:56.870Z,10.53
2018-12-24T00:25:24.486Z,11.77
2018-12-24T00:27:52.245Z,10.47
2018-12-24T00:30:20.173Z,11.13
2018-12-24T00:32:47.926Z,11.17
2018-12-24T00:35:15.526Z,9.87
2018-12-24T00:37:43.119Z,9.30
2018-12-24T00:40:10.977Z,10.40
2018-12-24T00:42:38.472Z,8.47
2018-12-24T00:45:06.405Z,9.17
2018-12-24T00:47:34.271Z,7.30
2018-12-24T00:50:01.973Z,7.43
2018-12-24T00:52:29.691Z,6.57
2018-12-24T00:54:57.396Z,6.70
2018-12-24T00:57:25.077Z,5.33
2018-12-24T00:59:53.082Z,5.60
2018-12-24T01:02:20.777Z,6.03
2018-12-24T01:04:48.366Z,6.63
2018-12-24T01:07:15.975Z,5.00
2018-12-24T01:09:43.579Z,4.90
2018-12-24T01:12:11.441Z,5.30
2018-12-24T01:14:39.292Z,5.00
2018-12-24T01:17:06.934Z,5.93
2018-12-24T01:19:34.641Z,5.87
2018-12-24T01:22:02.336Z,6.03
2018-12-24T01:24:30.163Z,6.07
2018-12-24T01:26:57.782Z,7.10
2018-12-24T01:29:25.479Z,9.03
2018-12-24T01:31:53.352Z,10.70
2018-12-24T01:34:21.239Z,8.73
2018-12-24T01:36:48.831Z,8.90
2018-12-24T01:39:16.532Z,9.63
2018-12-24T01:41:44.299Z,9.77
2018-12-24T01:44:13.418Z,9.93
2018-12-24T01:46:41.253Z,9.00
2018-12-24T01:49:09.092Z,9.67
2018-12-24T01:51:37.027Z,11.47
2018-12-24T01:54:04.751Z,11.20
2018-12-24T01:56:32.345Z,11.20
2018-12-24T01:59:00.207Z,11.43
2018-12-24T02:01:27.804Z,11.63
2018-12-24T02:03:55.383Z,12.10
2018-12-24T02:06:23.152Z,13.57
2018-12-24T02:08:51.049Z,13.97
2018-12-24T02:11:18.627Z,14.63
2018-12-24T02:13:46.306Z,12.77
2018-12-24T02:16:13.930Z,14.00
2018-12-24T02:18:41.617Z,10.03
2018-12-24T02:21:09.308Z,10.00
2018-12-24T02:23:36.916Z,7.10
2018-12-24T02:26:05.061Z,6.37
2018-12-24T02:28:32.647Z,5.70
2018-12-24T02:31:00.263Z,5.63
2018-12-24T02:33:28.077Z,5.97
2018-12-24T02:35:55.932Z,5.27
2018-12-24T02:38:23.783Z,3.80
2018-12-24T02:40:51.401Z,3.73
2018-12-24T02:43:19.344Z,3.60
2018-12-24T02:45:47.211Z,3.37
2018-12-24T02:48:15.124Z,4.13
2018-12-24T02:50:42.739Z,3.13
2018-12-24T02:53:10.414Z,2.87
2018-12-24T02:55:38.114Z,3.27
2018-12-24T02:58:05.837Z,2.90
2018-12-24T03:00:33.547Z,3.13
2018-12-24T03:03:01.423Z,2.90
2018-12-24T03:05:29.022Z,3.13
2018-12-24T03:07:56.612Z,3.10
2018-12-24T03:10:24.291Z,2.73
2018-12-24T03:13:02.085Z,2.67
2018-12-24T03:15:21.542Z,2.67
2018-12-24T03:17:49.225Z,1.73
2018-12-24T03:20:16.951Z,2.43
2018-12-24T03:22:44.569Z,2.30
2018-12-24T03:25:12.502Z,2.33
2018-12-24T03:27:40.207Z,2.80
2018-12-24T03:30:08.226Z,2.90
2018-12-24T03:32:35.879Z,2.00
2018-12-24T03:35:04.361Z,2.23
2018-12-24T03:37:31.970Z,2.10
2018-12-24T03:39:59.560Z,2.07
2018-12-24T03:42:27.171Z,2.03
2018-12-24T03:44:54.783Z,2.53
2018-12-24T03:47:22.378Z,2.70
2018-12-24T03:49:50.008Z,1.87
2018-12-24T03:52:17.609Z,2.23
2018-12-24T03:54:45.209Z,2.30
2018-12-24T03:57:13.070Z,2.63
2018-12-24T03:59:41.025Z,2.40
2018-12-24T04:02:08.628Z,2.50
2018-12-24T04:04:36.612Z,1.83
2018-12-24T04:07:04.246Z,1.80
2018-12-24T04:09:32.186Z,1.97
2018-12-24T04:12:00.042Z,1.70
2018-12-24T04:14:27.655Z,1.87
2018-12-24T04:16:55.262Z,1.80
2018-12-24T04:19:22.946Z,1.40
2018-12-24T04:21:50.486Z,1.93
2018-12-24T04:24:18.184Z,1.40
2018-12-24T04:26:45.699Z,1.80
2018-12-24T04:29:13.323Z,1.43
2018-12-24T04:31:41.260Z,1.40
2018-12-24T04:34:08.759Z,0.70
2018-12-24T04:36:36.779Z,0.87
2018-12-24T04:39:05.096Z,1.20
2018-12-24T04:41:32.656Z,0.90
2018-12-24T04:44:00.252Z,1.10
2018-12-24T04:46:27.954Z,1.03
2018-12-24T04:48:55.433Z,1.03
2018-12-24T04:51:23.052Z,0.97
2018-12-24T04:53:50.753Z,2.13
2018-12-24T04:56:18.372Z,1.60
2018-12-24T04:58:46.064Z,2.00
2018-12-24T05:01:13.560Z,1.23
2018-12-24T05:03:41.180Z,1.53
2018-12-24T05:06:09.057Z,1.63
2018-12-24T05:08:36.637Z,1.60
2018-12-24T05:11:04.513Z,1.50
2018-12-24T05:13:40.672Z,1.53
2018-12-24T05:16:01.844Z,1.63
2018-12-24T05:18:29.706Z,1.00
2018-12-24T05:20:57.427Z,0.80
2018-12-24T05:23:25.371Z,1.30
2018-12-24T05:25:53.223Z,1.00
2018-12-24T05:28:20.750Z,1.63
2018-12-24T05:30:48.321Z,1.33
2018-12-24T05:33:15.936Z,1.57
2018-12-24T05:35:43.628Z,1.27
2018-12-24T05:38:11.395Z,1.03
2018-12-24T05:40:38.892Z,0.90
2018-12-24T05:43:06.748Z,1.20
2018-12-24T05:45:34.236Z,1.43
2018-12-24T05:48:01.937Z,0.90
2018-12-24T05:50:29.669Z,1.10
2018-12-24T05:52:57.286Z,1.20
2018-12-24T05:55:24.850Z,1.20
2018-12-24T05:57:52.351Z,1.20
2018-12-24T06:00:20.068Z,0.77
2018-12-24T06:02:47.807Z,1.10
2018-12-24T06:05:15.488Z,0.70
2018-12-24T06:07:43.180Z,0.83
2018-12-24T06:10:10.881Z,1.20
2018-12-24T06:12:38.584Z,1.17
2018-12-24T06:15:06.268Z,0.93
2018-12-24T06:17:34.223Z,1.20
2018-12-24T06:20:01.960Z,0.93
2018-12-24T06:22:29.647Z,1.00
2018-12-24T06:24:57.583Z,0.73
2018-12-24T06:27:25.122Z,0.67
2018-12-24T06:29:52.820Z,0.90
2018-12-24T06:32:20.317Z,1.10
2018-12-24T06:34:48.094Z,0.90
2018-12-24T06:37:15.729Z,0.83
2018-12-24T06:39:43.320Z,1.20
2018-12-24T06:42:10.909Z,1.10
2018-12-24T06:44:38.643Z,1.13
2018-12-24T06:47:06.424Z,0.83
2018-12-24T06:49:34.035Z,1.10
2018-12-24T06:52:01.652Z,0.63
2018-12-24T06:54:29.361Z,0.90
2018-12-24T06:56:57.057Z,0.73
2018-12-24T06:59:24.935Z,0.60
2018-12-24T07:01:52.450Z,0.80
2018-12-24T07:04:20.667Z,0.70
2018-12-24T07:06:48.289Z,0.70
2018-12-24T07:09:16.086Z,0.70
2018-12-24T07:11:43.911Z,1.33
2018-12-24T07:14:15.587Z,0.60
2018-12-24T07:17:23.437Z,0.70
2018-12-24T07:19:50.851Z,1.00
2018-12-24T07:22:18.212Z,0.67
2018-12-24T07:24:45.479Z,0.80
2018-12-24T07:27:12.877Z,0.73
2018-12-24T07:29:40.192Z,0.80
2018-12-24T07:32:07.479Z,0.70
2018-12-24T07:34:34.825Z,0.90
2018-12-24T07:37:02.099Z,0.80
2018-12-24T07:39:29.355Z,0.97
2018-12-24T07:41:56.588Z,0.87
2018-12-24T07:44:24.263Z,0.63
2018-12-24T07:46:51.951Z,1.00
2018-12-24T07:49:19.281Z,0.90
2018-12-24T07:51:46.556Z,0.70
2018-12-24T07:54:14.078Z,0.47
2018-12-24T07:56:41.629Z,0.80
2018-12-24T07:59:09.272Z,0.80
2018-12-24T08:01:36.803Z,0.67
2018-12-24T08:04:04.056Z,0.80
2018-12-24T08:06:31.390Z,1.00
2018-12-24T08:08:58.711Z,0.73
2018-12-24T08:11:25.948Z,0.77
2018-12-24T08:13:53.239Z,1.00
2018-12-24T08:16:20.483Z,0.80
2018-12-24T08:18:47.774Z,1.07
2018-12-24T08:21:15.336Z,0.80
2018-12-24T08:23:42.617Z,0.70
2018-12-24T08:26:09.851Z,0.80
2018-12-24T08:28:37.126Z,0.50
2018-12-24T08:31:04.377Z,0.60
2018-12-24T08:33:31.656Z,0.70
2018-12-24T08:35:59.179Z,0.70
2018-12-24T08:38:26.433Z,0.50
2018-12-24T08:40:54.078Z,1.00
2018-12-24T08:43:21.453Z,1.60
2018-12-24T08:45:48.751Z,0.90
2018-12-24T08:48:16.046Z,0.80
2018-12-24T08:50:43.561Z,0.70
2018-12-24T08:53:11.126Z,1.13
2018-12-24T08:55:38.384Z,0.80
2018-12-24T08:58:05.541Z,0.90
2018-12-24T09:00:33.187Z,1.60
2018-12-24T09:03:00.731Z,0.70
2018-12-24T09:05:28.391Z,1.10
2018-12-24T09:07:55.953Z,0.80
2018-12-24T09:10:23.237Z,0.87
2018-12-24T09:12:50.585Z,0.90
2018-12-24T09:15:18.465Z,0.60
2018-12-24T09:17:45.883Z,0.83
2018-12-24T09:20:13.240Z,0.97
2018-12-24T09:22:40.547Z,0.87
2018-12-24T09:25:07.830Z,0.90
2018-12-24T09:27:35.123Z,0.80
2018-12-24T09:30:02.733Z,0.87
2018-12-24T09:32:30.011Z,1.00
2018-12-24T09:34:57.317Z,1.40
2018-12-24T09:37:24.955Z,1.30
2018-12-24T09:39:52.216Z,1.10
2018-12-24T09:42:19.500Z,0.90
2018-12-24T09:44:46.923Z,0.80
2018-12-24T09:47:14.276Z,1.00
2018-12-24T09:49:41.536Z,1.00
2018-12-24T09:52:08.860Z,0.53
2018-12-24T09:54:36.251Z,0.80
2018-12-24T09:57:03.625Z,0.87
2018-12-24T09:59:31.016Z,0.80
2018-12-24T10:01:58.283Z,0.80
2018-12-24T10:04:28.284Z,0.70
2018-12-24T10:06:57.883Z,1.73
2018-12-24T10:09:25.227Z,1.73
2018-12-24T10:11:52.497Z,1.20
2018-12-24T10:14:19.860Z,1.23
2018-12-24T10:16:47.476Z,1.40
2018-12-24T10:19:14.965Z,1.00
2018-12-24T10:21:42.336Z,0.80
2018-12-24T10:24:09.695Z,1.53
2018-12-24T10:26:37.345Z,1.30
2018-12-24T10:29:04.950Z,0.90
2018-12-24T10:31:32.580Z,1.70
2018-12-24T10:34:00.226Z,1.43
2018-12-24T10:36:27.478Z,1.30
2018-12-24T10:38:54.761Z,1.50
2018-12-24T10:41:23.387Z,1.50
2018-12-24T10:43:50.671Z,1.33
2018-12-24T10:46:17.974Z,1.40
2018-12-24T10:48:46.572Z,2.23
2018-12-24T10:51:14.048Z,1.30
2018-12-24T10:53:41.695Z,1.40
2018-12-24T10:56:09.412Z,1.43
2018-12-24T10:58:37.304Z,1.20
2018-12-24T11:01:04.664Z,1.73
2018-12-24T11:03:32.051Z,1.30
2018-12-24T11:05:59.712Z,1.30
2018-12-24T11:08:27.206Z,1.53
2018-12-24T11:10:54.581Z,1.30
2018-12-24T11:13:22.180Z,1.27
2018-12-24T11:15:49.492Z,1.60
2018-12-24T11:18:17.152Z,1.77
2018-12-24T11:20:44.832Z,1.40
2018-12-24T11:23:12.202Z,1.37
2018-12-24T11:25:39.465Z,1.60
2018-12-24T11:28:06.989Z,1.63
2018-12-24T11:30:34.358Z,2.00
2018-12-24T11:33:01.738Z,1.73
2018-12-24T11:35:29.090Z,1.33
2018-12-24T11:37:56.656Z,1.40
2018-12-24T11:40:24.216Z,1.30
2018-12-24T11:42:51.518Z,1.80
2018-12-24T11:45:19.052Z,1.70
2018-12-24T11:47:46.373Z,1.40
2018-12-24T11:50:13.689Z,1.80
2018-12-24T11:52:41.182Z,1.63
2018-12-24T11:55:09.638Z,1.60
2018-12-24T11:57:37.057Z,2.07
2018-12-24T12:00:04.713Z,1.30
2018-12-24T12:02:31.983Z,1.53
2018-12-24T12:04:59.240Z,1.93
2018-12-24T12:07:26.602Z,2.13
2018-12-24T12:09:54.169Z,1.87
2018-12-24T12:12:21.781Z,1.70
2018-12-24T12:15:08.543Z,1.73
2018-12-24T12:17:35.793Z,1.97
2018-12-24T12:20:03.453Z,1.93
2018-12-24T12:31:25.705Z,1.73
2018-12-24T12:33:53.248Z,2.07
2018-12-24T12:36:20.518Z,1.87
2018-12-24T12:38:47.911Z,1.97
2018-12-24T12:41:15.174Z,1.73
2018-12-24T12:43:42.446Z,1.70
2018-12-24T12:46:10.080Z,1.57
2018-12-24T12:48:37.458Z,1.73
2018-12-24T12:51:04.837Z,1.90
2018-12-24T12:53:32.192Z,2.17
2018-12-24T12:55:59.714Z,1.63
2018-12-24T12:58:27.312Z,2.20
2018-12-24T13:00:54.679Z,1.80
2018-12-24T13:03:22.034Z,1.90
2018-12-24T13:05:49.419Z,2.80
2018-12-24T13:08:16.788Z,1.60
2018-12-24T13:10:44.066Z,1.60
2018-12-24T13:13:11.332Z,1.80
2018-12-24T13:15:38.975Z,1.70
2018-12-24T13:18:06.375Z,1.33
2018-12-24T13:20:33.854Z,1.47
2018-12-24T13:23:01.122Z,1.37
2018-12-24T13:25:28.501Z,1.00
2018-12-24T13:27:55.883Z,1.30
2018-12-24T13:30:23.421Z,1.00
2018-12-24T13:32:50.990Z,1.30
2018-12-24T13:35:18.273Z,1.20
2018-12-24T13:37:45.540Z,0.87
2018-12-24T13:40:12.851Z,2.03
2018-12-24T13:42:40.260Z,1.77
2018-12-24T13:45:07.656Z,1.20
2018-12-24T13:47:34.901Z,1.20
2018-12-24T13:50:02.762Z,1.20
2018-12-24T13:52:30.362Z,0.80
2018-12-24T13:54:57.917Z,0.90
2018-12-24T13:57:25.195Z,0.77
2018-12-24T13:59:52.741Z,0.80
2018-12-24T14:02:20.100Z,1.27
2018-12-24T14:04:47.344Z,1.50
2018-12-24T14:07:14.875Z,0.93
2018-12-24T14:09:42.423Z,1.30
2018-12-24T14:12:10.060Z,0.70
2018-12-24T14:14:37.445Z,1.53
2018-12-24T14:17:04.813Z,1.47
2018-12-24T14:19:32.740Z,1.17
2018-12-24T14:22:00.286Z,1.43
2018-12-24T14:24:27.567Z,1.03
2018-12-24T14:26:55.102Z,1.37
2018-12-24T14:29:22.365Z,1.07
2018-12-24T14:31:49.729Z,1.40
2018-12-24T14:34:17.389Z,1.27
2018-12-24T14:36:45.004Z,1.73
2018-12-24T14:39:12.658Z,1.40
2018-12-24T14:41:39.931Z,1.30
2018-12-24T14:44:07.310Z,1.47
2018-12-24T14:46:34.851Z,1.47
2018-12-24T14:49:02.128Z,1.57
2018-12-24T14:51:29.719Z,1.27
2018-12-24T14:53:57.063Z,1.53
2018-12-24T14:56:24.320Z,1.50
2018-12-24T14:58:51.575Z,1.50
2018-12-24T15:01:18.855Z,1.73
2018-12-24T15:03:46.201Z,1.30
2018-12-24T15:06:13.440Z,1.50
2018-12-24T15:08:41.150Z,1.93
2018-12-24T15:11:08.662Z,1.60
2018-12-24T15:13:35.930Z,1.40
2018-12-24T15:16:03.214Z,1.43
2018-12-24T15:18:30.596Z,2.17
2018-12-24T15:20:58.243Z,2.13
2018-12-24T15:23:25.513Z,2.17
2018-12-24T15:25:52.870Z,2.77
2018-12-24T15:28:20.113Z,1.93
2018-12-24T15:30:47.676Z,2.07
2018-12-24T15:33:14.967Z,1.80
2018-12-24T15:35:42.215Z,2.50
2018-12-24T15:38:09.483Z,2.23
2018-12-24T15:40:36.852Z,1.90
2018-12-24T15:43:04.126Z,2.30
2018-12-24T15:45:31.398Z,2.43
2018-12-24T15:47:58.670Z,2.00
2018-12-24T15:50:25.975Z,3.00
2018-12-24T15:52:53.768Z,2.70
2018-12-24T15:55:21.125Z,2.07
2018-12-24T15:57:48.479Z,2.97
2018-12-24T16:00:15.731Z,2.90
2018-12-24T16:02:42.992Z,2.83
2018-12-24T16:05:10.242Z,2.93
2018-12-24T16:07:37.493Z,3.33
2018-12-24T16:10:07.474Z,3.70
2018-12-24T16:12:34.807Z,3.10
2018-12-24T16:15:02.326Z,3.37
2018-12-24T16:17:29.601Z,2.90
2018-12-24T16:19:56.841Z,3.37
2018-12-24T16:22:24.099Z,4.33
2018-12-24T16:24:51.701Z,3.23
2018-12-24T16:27:18.981Z,4.60
2018-12-24T16:29:46.219Z,4.20
2018-12-24T16:32:13.768Z,4.73
2018-12-24T16:34:41.010Z,5.57
2018-12-24T16:37:08.551Z,7.30
2018-12-24T16:39:35.817Z,6.00
2018-12-24T16:42:03.063Z,5.67
2018-12-24T16:44:30.345Z,6.83
2018-12-24T16:46:59.457Z,6.20
2018-12-24T16:49:27.088Z,6.50
2018-12-24T16:51:54.522Z,6.83
2018-12-24T16:54:22.118Z,6.60
2018-12-24T16:56:49.411Z,6.97
2018-12-24T16:59:16.767Z,8.90
2018-12-24T17:01:44.014Z,8.40
2018-12-24T17:04:11.298Z,7.70
2018-12-24T17:06:38.580Z,7.13
2018-12-24T17:09:05.892Z,7.57
2018-12-24T17:11:33.169Z,7.87
2018-12-24T17:14:00.553Z,7.70
2018-12-24T17:16:27.942Z,6.53
2018-12-24T17:18:55.553Z,6.90
2018-12-24T17:21:22.923Z,6.70
2018-12-24T17:23:50.591Z,11.07
2018-12-24T17:26:17.864Z,10.53
2018-12-24T17:28:45.530Z,8.93
2018-12-24T17:31:12.787Z,13.40
2018-12-24T17:33:40.332Z,10.40
2018-12-24T17:36:07.659Z,12.50
2018-12-24T17:38:35.188Z,34.00
2018-12-24T17:41:02.742Z,15.77
2018-12-24T17:43:30.098Z,9.00
2018-12-24T17:45:57.732Z,12.13
2018-12-24T17:48:24.984Z,14.17
2018-12-24T17:50:52.248Z,10.63
2018-12-24T17:53:19.506Z,9.50
2018-12-24T17:55:46.755Z,9.53
2018-12-24T17:58:14.122Z,6.67
2018-12-24T18:00:41.482Z,6.67
2018-12-24T18:03:08.739Z,9.07
2018-12-24T18:05:36.016Z,7.80
2018-12-24T18:08:03.529Z,7.87
2018-12-24T18:10:31.117Z,9.20
2018-12-24T18:12:58.659Z,9.00
2018-12-24T18:15:26.206Z,10.87
2018-12-24T18:17:53.752Z,12.10
2018-12-24T18:20:21.026Z,12.63
2018-12-24T18:22:48.308Z,11.43
2018-12-24T18:25:15.845Z,10.67
2018-12-24T18:27:43.464Z,10.97
2018-12-24T18:30:10.759Z,11.13
2018-12-24T18:32:38.049Z,12.03
2018-12-24T18:35:05.393Z,12.70
2018-12-24T18:37:32.648Z,13.20
2018-12-24T18:39:59.909Z,12.50
2018-12-24T18:42:27.330Z,10.63
2018-12-24T18:44:54.657Z,9.50
2018-12-24T18:47:21.888Z,10.53
2018-12-24T18:49:49.202Z,11.57
2018-12-24T18:52:16.819Z,9.17
2018-12-24T18:54:44.345Z,9.70
2018-12-24T18:57:11.875Z,10.70
2018-12-24T18:59:39.498Z,9.63
2018-12-24T19:02:07.004Z,12.57
2018-12-24T19:04:35.000Z,11.87
2018-12-24T19:07:02.275Z,16.80
2018-12-24T19:09:29.628Z,12.97
2018-12-24T19:11:57.155Z,14.13
2018-12-24T19:14:24.447Z,12.80
2018-12-24T19:16:51.728Z,12.67
2018-12-24T19:19:19.236Z,12.43
2018-12-24T19:21:46.522Z,11.73
2018-12-24T19:24:13.805Z,9.67
2018-12-24T19:26:41.044Z,10.67
2018-12-24T19:29:08.710Z,9.10
2018-12-24T19:31:36.085Z,9.27
2018-12-24T19:34:03.446Z,9.40
2018-12-24T19:36:30.785Z,8.80
2018-12-24T19:38:58.296Z,9.87
2018-12-24T19:41:25.959Z,8.60
2018-12-24T19:43:53.293Z,9.10
2018-12-24T19:46:20.548Z,11.77
2018-12-24T19:48:47.820Z,7.90
2018-12-24T19:51:15.210Z,8.47
2018-12-24T19:53:42.462Z,9.53
2018-12-24T19:56:09.723Z,9.30
2018-12-24T19:58:36.968Z,7.13
2018-12-24T20:01:04.208Z,6.63
2018-12-24T20:03:31.471Z,8.27
2018-12-24T20:05:58.755Z,7.70
2018-12-24T20:08:25.996Z,7.87
2018-12-24T20:10:53.520Z,8.00
2018-12-24T20:13:20.771Z,7.23
2018-12-24T20:15:48.046Z,7.20
2018-12-24T20:18:15.411Z,6.60
2018-12-24T20:20:42.931Z,6.10
2018-12-24T20:23:10.492Z,6.47
2018-12-24T20:25:38.097Z,6.87
2018-12-24T20:28:05.638Z,8.07
2018-12-24T20:30:33.233Z,6.97
2018-12-24T20:33:00.485Z,7.97
2018-12-24T20:35:27.730Z,8.40
2018-12-24T20:37:55.008Z,8.17
2018-12-24T20:40:22.253Z,7.63
2018-12-24T20:42:49.515Z,6.80
2018-12-24T20:45:16.760Z,7.37
2018-12-24T20:47:44.033Z,8.73
2018-12-24T20:50:11.373Z,8.03
2018-12-24T20:52:38.872Z,6.80
2018-12-24T20:55:06.116Z,7.93
2018-12-24T20:57:33.658Z,8.20
2018-12-24T21:00:01.025Z,7.80
2018-12-24T21:02:28.583Z,7.40
2018-12-24T21:04:55.965Z,6.97
2018-12-24T21:07:23.340Z,6.93
2018-12-24T21:09:50.759Z,5.87
2018-12-24T21:12:18.069Z,5.33
2018-12-24T21:14:45.424Z,5.83
2018-12-24T21:17:12.946Z,6.77
2018-12-24T21:19:40.767Z,6.40
2018-12-24T21:22:08.696Z,6.83
2018-12-24T21:24:36.184Z,6.53
2018-12-24T21:27:03.540Z,6.33
2018-12-24T21:29:30.823Z,5.80
2018-12-24T21:31:58.242Z,7.37
2018-12-24T21:34:25.555Z,7.40
2018-12-24T21:36:52.834Z,6.10
2018-12-24T21:39:20.357Z,6.93
2018-12-24T21:41:47.616Z,6.83
2018-12-24T21:44:14.946Z,6.83
2018-12-24T21:46:42.841Z,6.53
2018-12-24T21:49:10.134Z,6.37
2018-12-24T21:51:37.503Z,6.87
2018-12-24T21:54:05.051Z,5.73
2018-12-24T21:56:32.313Z,6.47
2018-12-24T21:58:59.942Z,7.83
2018-12-24T22:01:27.195Z,8.33
2018-12-24T22:03:54.974Z,7.73
2018-12-24T22:06:22.313Z,7.87
2018-12-24T22:08:49.672Z,7.13
2018-12-24T22:11:17.027Z,8.10
2018-12-24T22:13:44.375Z,7.47
2018-12-24T22:16:11.761Z,6.97
2018-12-24T22:18:42.524Z,6.90
2018-12-24T22:21:29.373Z,6.57
2018-12-24T22:23:56.896Z,6.67
2018-12-24T22:26:24.168Z,7.17
2018-12-24T22:28:51.798Z,7.30
2018-12-24T22:31:19.338Z,7.60
2018-12-24T22:33:46.604Z,8.33
2018-12-24T22:36:33.446Z,8.20
2018-12-24T22:39:00.833Z,9.30
2018-12-24T22:41:28.247Z,8.30
2018-12-24T22:43:55.887Z,8.43
2018-12-24T22:46:23.406Z,8.70
2018-12-24T22:48:51.034Z,8.43
2018-12-24T22:51:18.837Z,8.37
2018-12-24T22:53:46.088Z,9.27
2018-12-24T22:56:13.448Z,8.37
2018-12-24T22:58:40.777Z,8.73
2018-12-24T23:01:08.045Z,7.80
2018-12-24T23:03:35.334Z,8.63
2018-12-24T23:06:02.680Z,7.57
2018-12-24T23:08:30.310Z,8.53
2018-12-24T23:10:57.819Z,7.53
2018-12-24T23:13:25.063Z,8.30
2018-12-24T23:15:52.637Z,8.10
2018-12-24T23:18:19.931Z,9.83
2018-12-24T23:20:47.310Z,9.50
2018-12-24T23:23:16.062Z,8.60
2018-12-24T23:25:43.615Z,8.20
2018-12-24T23:28:10.973Z,7.97
2018-12-24T23:30:38.581Z,8.63
2018-12-24T23:33:06.104Z,8.90
2018-12-24T23:35:33.414Z,8.83
2018-12-24T23:38:00.656Z,9.60
2018-12-24T23:40:27.909Z,9.27
2018-12-24T23:42:55.171Z,9.17
2018-12-24T23:45:22.543Z,9.63
2018-12-24T23:47:49.833Z,9.43
2018-12-24T23:50:17.345Z,9.20
2018-12-24T23:52:44.765Z,9.93
2018-12-24T23:55:12.035Z,8.70
2018-12-24T23:57:39.310Z,9.13
